< < Back
Terminal Aerodrome Forecast


Current Version              Previous Versions:   1  2  3  4  5  6  7  8  9  

Terminal Aerodrome Forecast

780
FTUS44 KMRX 262327
TAFCHA
TAF
KCHA 262327Z 2700/2724 VRB04KT P6SM SCT050 SCT100
     FM271400 18006KT P6SM SCT050 BKN200
     FM272000 18006KT P6SM VCTS SCT050CB BKN200=

Latest METAR

339
SAUS80 KWBC 271200
MTRCHA
METAR KCHA 271153Z 00000KT 8SM SCT065 BKN250 21/17 A3010 RMK AO2 SLP184
T02060172 10222 20183 53015


USA.gov is the U.S. government's official web portal to all federal, state and local government web resources and services.